Terminal Aerodrome Forecast
Issued by NWS Upton, NY

Home | Current Version | Previous Version | Text Only | Print | Product List | Glossary On
Versions: 1 2 3 4 5 6 7 8 9 10 11 12 13 14 15 16 17 18 19 20 21 22 23 24 25 26 27
000
FTUS41 KOKX 212300
TAFJFK
TAF
KJFK 212322Z 2200/2306 14009KT P6SM VCSH SCT015 BKN040
     FM220200 12005KT P6SM VCSH BKN015
      TEMPO 2202/2205 5SM SHRA
     FM221000 10008KT 6SM BR OVC015
     FM221400 10011KT P6SM SCT020 OVC035
     FM230200 09008KT P6SM BKN020 OVC035=

USA.gov is the U.S. government's official web portal to all federal, state and local government web resources and services.